createdAt,value
2022-11-29T00:00:13.393Z,2.44
2022-11-29T00:01:13.452Z,0.92
2022-11-29T00:02:13.435Z,2.80
2022-11-29T00:03:13.782Z,4.16
2022-11-29T00:04:13.836Z,4.04
2022-11-29T00:05:13.895Z,3.68
2022-11-29T00:06:12.842Z,2.64
2022-11-29T00:07:14.841Z,0.56
2022-11-29T00:08:13.878Z,2.96
2022-11-29T00:09:13.769Z,4.42
2022-11-29T00:10:13.910Z,2.04
2022-11-29T00:11:12.794Z,4.40
2022-11-29T00:12:13.749Z,4.20
2022-11-29T00:13:13.859Z,3.60
2022-11-29T00:14:13.856Z,3.60
2022-11-29T00:15:13.823Z,7.44
2022-11-29T00:16:13.790Z,5.12
2022-11-29T00:17:13.956Z,5.24
2022-11-29T00:18:13.288Z,2.80
2022-11-29T00:19:13.683Z,1.72
2022-11-29T00:20:15.072Z,2.52
2022-11-29T00:21:13.006Z,1.12
2022-11-29T00:22:13.278Z,3.24
2022-11-29T00:23:13.460Z,4.08
2022-11-29T00:24:13.705Z,1.64
2022-11-29T00:25:13.573Z,1.96
2022-11-29T00:26:13.457Z,2.88
2022-11-29T00:27:13.395Z,1.04
2022-11-29T00:28:13.384Z,2.72
2022-11-29T00:29:13.236Z,1.72
2022-11-29T00:30:13.624Z,2.16
2022-11-29T00:31:13.664Z,0.96
2022-11-29T00:32:14.235Z,5.32
2022-11-29T00:33:14.143Z,3.12
2022-11-29T00:34:13.169Z,1.64
2022-11-29T00:35:13.202Z,4.36
2022-11-29T00:36:13.153Z,2.68
2022-11-29T00:37:13.082Z,2.08
2022-11-29T00:38:13.418Z,1.32
2022-11-29T00:39:13.240Z,1.04
2022-11-29T00:40:13.112Z,1.96
2022-11-29T00:41:13.005Z,2.08
2022-11-29T00:42:12.946Z,2.76
2022-11-29T00:43:13.176Z,3.24
2022-11-29T00:44:18.338Z,1.60
2022-11-29T00:45:13.259Z,1.92
2022-11-29T00:46:13.240Z,3.40
2022-11-29T00:47:13.592Z,0.96
2022-11-29T00:48:13.494Z,0.68
2022-11-29T00:49:13.641Z,1.20
2022-11-29T00:50:13.584Z,1.32
2022-11-29T00:51:13.699Z,1.04
2022-11-29T00:52:13.842Z,0.16
2022-11-29T00:53:13.813Z,1.92
2022-11-29T00:54:13.830Z,2.08
2022-11-29T00:55:13.842Z,1.20
2022-11-29T00:56:13.926Z,0.80
2022-11-29T00:57:12.868Z,0.88
2022-11-29T00:58:13.823Z,2.92
2022-11-29T00:59:14.148Z,1.28
2022-11-29T01:00:13.090Z,1.20
2022-11-29T01:01:13.483Z,1.28
2022-11-29T01:02:13.822Z,3.20
2022-11-29T01:03:13.996Z,1.12
2022-11-29T01:04:13.037Z,3.28
2022-11-29T01:05:13.002Z,4.60
2022-11-29T01:06:12.926Z,3.44
2022-11-29T01:07:12.823Z,3.76
2022-11-29T01:08:13.852Z,2.24
2022-11-29T01:09:14.129Z,4.40
2022-11-29T01:10:18.038Z,2.12
2022-11-29T01:11:18.006Z,2.20
2022-11-29T01:12:13.032Z,1.28
2022-11-29T01:13:12.936Z,1.80
2022-11-29T01:14:12.910Z,1.96
2022-11-29T01:15:12.802Z,2.20
2022-11-29T01:16:13.989Z,2.84
2022-11-29T01:17:13.216Z,4.56
2022-11-29T01:18:13.104Z,1.68
2022-11-29T01:19:13.417Z,3.72
2022-11-29T01:20:13.478Z,2.00
2022-11-29T01:21:13.357Z,2.96
2022-11-29T01:22:13.543Z,3.36
2022-11-29T01:23:14.161Z,3.56
2022-11-29T01:24:13.295Z,0.76
2022-11-29T01:25:13.400Z,5.76
2022-11-29T01:26:13.303Z,2.48
2022-11-29T01:27:13.397Z,1.28
2022-11-29T01:28:13.381Z,3.12
2022-11-29T01:29:13.475Z,1.04
2022-11-29T01:30:13.600Z,1.84
2022-11-29T01:31:13.782Z,3.76
2022-11-29T01:32:16.164Z,0.64
2022-11-29T01:33:13.030Z,0.00
2022-11-29T01:34:13.153Z,0.32
2022-11-29T01:35:13.069Z,2.24
2022-11-29T01:36:12.960Z,0.56
2022-11-29T01:37:12.927Z,0.72
2022-11-29T01:38:13.188Z,3.00
2022-11-29T01:39:18.649Z,0.24
2022-11-29T01:40:13.538Z,0.88
2022-11-29T01:41:13.730Z,0.08
2022-11-29T01:42:18.768Z,0.16
2022-11-29T01:43:13.704Z,2.32
2022-11-29T01:44:13.638Z,0.88
2022-11-29T01:45:13.474Z,0.00
2022-11-29T01:46:13.852Z,1.24
2022-11-29T01:47:14.829Z,0.48
2022-11-29T01:48:15.151Z,2.88
2022-11-29T01:49:13.035Z,2.24
2022-11-29T01:50:13.059Z,1.44
2022-11-29T01:51:13.590Z,1.76
2022-11-29T01:52:18.540Z,2.00
2022-11-29T01:53:13.413Z,0.56
2022-11-29T01:54:13.275Z,1.12
2022-11-29T01:55:13.180Z,2.24
2022-11-29T01:56:13.193Z,2.32
2022-11-29T01:57:18.189Z,0.76
2022-11-29T01:58:13.349Z,1.44
2022-11-29T01:59:13.585Z,0.56
2022-11-29T02:00:13.688Z,3.12
2022-11-29T02:01:14.158Z,1.52
2022-11-29T02:02:13.192Z,1.76
2022-11-29T02:03:13.226Z,1.76
2022-11-29T02:04:13.200Z,2.36
2022-11-29T02:05:13.278Z,0.96
2022-11-29T02:06:13.486Z,1.58
2022-11-29T02:07:13.588Z,1.68
2022-11-29T02:08:13.570Z,2.16
2022-11-29T02:09:13.893Z,0.20
2022-11-29T02:10:12.860Z,0.88
2022-11-29T02:11:13.723Z,2.52
2022-11-29T02:12:13.620Z,2.68
2022-11-29T02:13:13.506Z,0.96
2022-11-29T02:14:13.548Z,0.08
2022-11-29T02:15:13.398Z,2.44
2022-11-29T02:16:13.354Z,1.68
2022-11-29T02:17:13.382Z,3.16
2022-11-29T02:18:13.347Z,0.88
2022-11-29T02:19:13.324Z,0.32
2022-11-29T02:20:13.192Z,1.92
2022-11-29T02:21:13.268Z,3.52
2022-11-29T02:22:13.266Z,2.16
2022-11-29T02:23:13.365Z,1.28
2022-11-29T02:24:13.610Z,2.40
2022-11-29T02:25:13.770Z,1.20
2022-11-29T02:26:13.872Z,1.04
2022-11-29T02:27:14.110Z,0.08
2022-11-29T02:28:13.443Z,0.00
2022-11-29T02:29:13.337Z,0.96
2022-11-29T02:30:13.348Z,0.56
2022-11-29T02:31:13.205Z,2.00
2022-11-29T02:32:13.418Z,0.72
2022-11-29T02:33:13.315Z,0.48
2022-11-29T02:34:13.671Z,0.80
2022-11-29T02:35:13.730Z,2.88
2022-11-29T02:36:13.719Z,2.88
2022-11-29T02:37:13.887Z,1.56
2022-11-29T02:38:13.017Z,0.84
2022-11-29T02:39:13.165Z,0.32
2022-11-29T02:40:13.408Z,1.20
2022-11-29T02:41:14.392Z,0.48
2022-11-29T02:42:13.343Z,0.56
2022-11-29T02:43:13.211Z,1.16
2022-11-29T02:44:13.012Z,0.00
2022-11-29T02:45:12.982Z,0.00
2022-11-29T02:46:13.162Z,0.08
2022-11-29T02:47:13.310Z,0.16
2022-11-29T02:48:13.240Z,0.44
2022-11-29T02:49:13.074Z,0.08
2022-11-29T02:50:12.974Z,1.64
2022-11-29T02:51:12.959Z,0.08
2022-11-29T02:52:12.818Z,0.60
2022-11-29T02:53:13.748Z,0.12
2022-11-29T02:54:13.716Z,0.00
2022-11-29T02:55:19.049Z,0.16
2022-11-29T02:56:13.270Z,1.28
2022-11-29T02:57:13.477Z,1.28
2022-11-29T02:58:13.763Z,0.32
2022-11-29T02:59:13.676Z,1.68
2022-11-29T03:00:13.656Z,0.16
2022-11-29T03:01:13.644Z,0.00
2022-11-29T03:02:13.695Z,0.32
2022-11-29T03:03:13.713Z,2.04
2022-11-29T03:04:13.620Z,3.08
2022-11-29T03:05:13.524Z,1.28
2022-11-29T03:06:13.402Z,0.08
2022-11-29T03:07:13.382Z,0.00
2022-11-29T03:08:13.305Z,0.52
2022-11-29T03:09:13.447Z,2.24
2022-11-29T03:10:13.425Z,2.00
2022-11-29T03:11:14.425Z,0.20
2022-11-29T03:12:13.358Z,0.00
2022-11-29T03:13:13.586Z,0.16
2022-11-29T03:14:13.858Z,1.96
2022-11-29T03:15:18.911Z,0.96
2022-11-29T03:16:12.851Z,1.20
2022-11-29T03:17:13.087Z,2.24
2022-11-29T03:18:13.291Z,0.56
2022-11-29T03:19:13.556Z,0.96
2022-11-29T03:20:13.588Z,2.32
2022-11-29T03:21:13.615Z,3.28
2022-11-29T03:22:13.543Z,2.64
2022-11-29T03:23:13.484Z,2.00
2022-11-29T03:24:13.368Z,1.28
2022-11-29T03:25:13.239Z,1.52
2022-11-29T03:26:13.399Z,0.32
2022-11-29T03:27:13.391Z,0.88
2022-11-29T03:28:13.379Z,1.36
2022-11-29T03:29:13.451Z,0.00
2022-11-29T03:30:13.606Z,2.56
2022-11-29T03:31:13.630Z,2.72
2022-11-29T03:32:13.990Z,1.44
2022-11-29T03:33:13.077Z,2.64
2022-11-29T03:34:13.221Z,2.52
2022-11-29T03:35:13.507Z,0.08
2022-11-29T03:36:13.381Z,0.16
2022-11-29T03:37:13.475Z,2.28
2022-11-29T03:38:13.398Z,3.96
2022-11-29T03:39:13.378Z,2.36
2022-11-29T03:40:13.319Z,2.56
2022-11-29T03:41:13.123Z,0.56
2022-11-29T03:42:13.046Z,3.64
2022-11-29T03:43:13.101Z,1.32
2022-11-29T03:44:13.022Z,2.08
2022-11-29T03:45:13.049Z,6.00
2022-11-29T03:46:13.160Z,3.52
2022-11-29T03:47:13.100Z,3.48
2022-11-29T03:48:13.181Z,1.84
2022-11-29T03:49:13.119Z,1.64
2022-11-29T03:50:13.161Z,0.80
2022-11-29T03:51:13.333Z,0.16
2022-11-29T03:52:13.332Z,0.64
2022-11-29T03:53:13.282Z,1.96
2022-11-29T03:54:13.228Z,6.44
2022-11-29T03:55:13.313Z,1.96
2022-11-29T03:56:13.128Z,2.24
2022-11-29T03:57:12.996Z,1.36
2022-11-29T03:58:13.067Z,1.00
2022-11-29T03:59:13.310Z,2.88
2022-11-29T04:00:13.154Z,0.32
2022-11-29T04:01:13.391Z,3.29
2022-11-29T04:02:13.371Z,2.60
2022-11-29T04:03:13.484Z,0.00
2022-11-29T04:04:13.443Z,1.28
2022-11-29T04:05:13.554Z,3.44
2022-11-29T04:06:13.631Z,5.88
2022-11-29T04:07:13.572Z,10.00
2022-11-29T04:08:13.636Z,1.84
2022-11-29T04:09:13.541Z,0.32
2022-11-29T04:10:13.567Z,0.00
2022-11-29T04:11:13.579Z,0.48
2022-11-29T04:12:13.936Z,0.80
2022-11-29T04:13:12.909Z,2.04
2022-11-29T04:14:13.107Z,1.28
2022-11-29T04:15:15.611Z,2.32
2022-11-29T04:16:13.865Z,4.24
2022-11-29T04:17:13.009Z,1.72
2022-11-29T04:18:13.053Z,0.96
2022-11-29T04:19:12.858Z,0.48
2022-11-29T04:20:13.872Z,0.00
2022-11-29T04:21:15.090Z,2.68
2022-11-29T04:22:12.983Z,0.20
2022-11-29T04:23:12.921Z,1.16
2022-11-29T04:24:12.762Z,2.32
2022-11-29T04:25:13.847Z,0.64
2022-11-29T04:26:13.893Z,0.52
2022-11-29T04:27:12.848Z,3.32
2022-11-29T04:28:12.961Z,1.20
2022-11-29T04:29:12.916Z,1.36
2022-11-29T04:30:12.989Z,2.64
2022-11-29T04:31:13.246Z,1.28
2022-11-29T04:32:13.139Z,0.88
2022-11-29T04:33:13.262Z,2.72
2022-11-29T04:34:13.094Z,3.64
2022-11-29T04:35:18.136Z,1.84
2022-11-29T04:36:13.152Z,2.68
2022-11-29T04:37:13.560Z,5.96
2022-11-29T04:38:13.539Z,2.20
2022-11-29T04:39:13.732Z,1.28
2022-11-29T04:40:13.644Z,3.40
2022-11-29T04:41:13.756Z,8.44
2022-11-29T04:42:13.776Z,2.76
2022-11-29T04:43:14.191Z,2.52
2022-11-29T04:44:13.170Z,1.88
2022-11-29T04:45:13.225Z,2.20
2022-11-29T04:46:13.494Z,1.96
2022-11-29T04:47:13.796Z,2.92
2022-11-29T04:48:13.576Z,3.28
2022-11-29T04:49:13.461Z,7.28
2022-11-29T04:50:13.340Z,7.56
2022-11-29T04:51:13.392Z,4.08
2022-11-29T04:52:13.674Z,11.48
2022-11-29T04:53:13.515Z,6.04
2022-11-29T04:54:13.363Z,5.52
2022-11-29T04:55:17.151Z,6.88
2022-11-29T04:56:13.086Z,3.60
2022-11-29T04:57:13.613Z,7.04
2022-11-29T04:58:13.670Z,7.32
2022-11-29T04:59:13.784Z,7.84
2022-11-29T05:00:13.903Z,3.44
2022-11-29T05:01:13.315Z,5.16
2022-11-29T05:02:13.492Z,4.00
2022-11-29T05:03:13.481Z,4.40
2022-11-29T05:04:13.351Z,5.96
2022-11-29T05:05:13.401Z,7.92
2022-11-29T05:06:13.297Z,4.00
2022-11-29T05:07:13.533Z,2.80
2022-11-29T05:08:13.492Z,1.76
2022-11-29T05:09:13.471Z,3.56
2022-11-29T05:10:13.451Z,1.92
2022-11-29T05:11:13.640Z,0.00
2022-11-29T05:12:13.987Z,1.12
2022-11-29T05:13:12.992Z,0.00
2022-11-29T05:14:13.435Z,5.04
2022-11-29T05:15:13.702Z,4.00
2022-11-29T05:16:13.797Z,0.40
2022-11-29T05:17:13.781Z,3.12
2022-11-29T05:18:13.797Z,1.52
2022-11-29T05:19:13.783Z,6.32
2022-11-29T05:20:14.221Z,4.32
2022-11-29T05:21:13.482Z,12.80
2022-11-29T05:22:13.356Z,9.56
2022-11-29T05:23:13.397Z,5.44
2022-11-29T05:24:13.229Z,2.96
2022-11-29T05:25:13.391Z,5.88
2022-11-29T05:26:13.211Z,4.72
2022-11-29T05:27:12.995Z,3.16
2022-11-29T05:28:13.008Z,3.36
2022-11-29T05:29:13.064Z,3.04
2022-11-29T05:30:12.973Z,2.88
2022-11-29T05:31:12.882Z,3.24
2022-11-29T05:32:12.882Z,2.40
2022-11-29T05:33:13.043Z,0.96
2022-11-29T05:34:12.904Z,3.32
2022-11-29T05:35:12.817Z,6.04
2022-11-29T05:36:13.723Z,8.24
2022-11-29T05:37:13.653Z,4.60
2022-11-29T05:38:13.555Z,8.88
2022-11-29T05:39:13.399Z,3.76
2022-11-29T05:40:13.585Z,3.20
2022-11-29T05:41:13.871Z,4.60
2022-11-29T05:42:13.805Z,3.44
2022-11-29T05:43:14.115Z,2.52
2022-11-29T05:44:13.126Z,4.92
2022-11-29T05:45:13.046Z,4.08
2022-11-29T05:46:12.994Z,5.32
2022-11-29T05:47:12.986Z,4.00
2022-11-29T05:48:12.991Z,2.96
2022-11-29T05:49:13.210Z,2.72
2022-11-29T05:50:13.120Z,1.36
2022-11-29T05:51:13.141Z,2.32
2022-11-29T05:52:13.234Z,1.56
2022-11-29T05:53:13.199Z,2.20
2022-11-29T05:54:13.392Z,0.24
2022-11-29T05:55:13.374Z,0.16
2022-11-29T05:56:13.546Z,1.88
2022-11-29T05:57:13.552Z,3.56
2022-11-29T05:58:13.506Z,3.92
2022-11-29T05:59:13.734Z,1.32
2022-11-29T06:00:13.572Z,2.08
2022-11-29T06:01:13.897Z,5.12
2022-11-29T06:02:18.352Z,2.64
2022-11-29T06:03:13.410Z,2.92
2022-11-29T06:04:15.129Z,2.16
2022-11-29T06:05:13.416Z,0.36
2022-11-29T06:06:14.023Z,0.00
2022-11-29T06:07:13.411Z,0.60
2022-11-29T06:08:39.982Z,1.12
2022-11-29T06:09:12.913Z,1.08
2022-11-29T06:10:12.958Z,0.00
2022-11-29T06:11:45.569Z,1.08
2022-11-29T06:12:15.839Z,0.12
2022-11-29T06:13:13.708Z,0.24
2022-11-29T06:14:28.939Z,2.64
2022-11-29T06:15:17.905Z,2.16
2022-11-29T06:16:12.958Z,0.60
2022-11-29T06:17:12.940Z,0.00
2022-11-29T06:18:12.803Z,0.00
2022-11-29T06:19:13.707Z,0.60
2022-11-29T06:20:13.510Z,3.12
2022-11-29T06:21:13.475Z,0.40
2022-11-29T06:22:14.100Z,0.08
2022-11-29T06:23:13.022Z,0.00
2022-11-29T06:24:13.119Z,0.56
2022-11-29T06:25:12.998Z,0.40
2022-11-29T06:26:12.820Z,0.00
2022-11-29T06:27:13.790Z,1.96
2022-11-29T06:28:13.829Z,0.80
2022-11-29T06:29:13.666Z,0.16
2022-11-29T06:30:13.849Z,0.00
2022-11-29T06:31:14.135Z,1.16
2022-11-29T06:32:13.018Z,2.32
2022-11-29T06:33:12.955Z,0.12
2022-11-29T06:34:12.983Z,0.80
2022-11-29T06:35:14.320Z,1.88
2022-11-29T06:36:13.291Z,3.20
2022-11-29T06:37:13.243Z,0.64
2022-11-29T06:38:13.308Z,1.00
2022-11-29T06:39:13.279Z,1.08
2022-11-29T06:40:13.303Z,2.32
2022-11-29T06:41:13.276Z,2.20
2022-11-29T06:42:13.234Z,0.16
2022-11-29T06:43:13.238Z,0.84
2022-11-29T06:44:13.387Z,0.44
2022-11-29T06:45:13.558Z,0.00
2022-11-29T06:46:13.412Z,0.88
2022-11-29T06:47:13.898Z,2.12
2022-11-29T06:48:13.271Z,0.32
2022-11-29T06:49:13.364Z,1.12
2022-11-29T06:50:14.933Z,1.24
2022-11-29T06:51:18.218Z,0.52
2022-11-29T06:52:13.223Z,0.32
2022-11-29T06:53:14.783Z,1.12
2022-11-29T06:54:19.063Z,3.24
2022-11-29T06:55:18.145Z,3.04
2022-11-29T06:56:13.566Z,1.88
2022-11-29T06:57:23.460Z,2.98
2022-11-29T06:58:13.493Z,2.32
2022-11-29T06:59:13.469Z,2.40
2022-11-29T07:00:13.501Z,0.32
2022-11-29T07:01:13.693Z,0.48
2022-11-29T07:02:13.778Z,3.24
2022-11-29T07:03:14.496Z,1.76
2022-11-29T07:04:13.514Z,0.00
2022-11-29T07:05:13.561Z,0.48
2022-11-29T07:06:13.762Z,0.00
2022-11-29T07:07:13.768Z,0.00
2022-11-29T07:08:13.848Z,0.32
2022-11-29T07:09:13.821Z,0.00
2022-11-29T07:10:18.838Z,1.15
2022-11-29T07:11:13.806Z,0.12
2022-11-29T07:12:13.911Z,0.00
2022-11-29T07:13:13.273Z,0.00
2022-11-29T07:14:13.202Z,0.00
2022-11-29T07:15:13.073Z,0.00
2022-11-29T07:16:13.529Z,0.00
2022-11-29T07:17:13.600Z,0.00
2022-11-29T07:18:13.570Z,0.00
2022-11-29T07:19:13.647Z,0.00
2022-11-29T07:20:13.727Z,0.00
2022-11-29T07:21:13.665Z,0.00
2022-11-29T07:22:13.737Z,0.00
2022-11-29T07:23:13.923Z,1.32
2022-11-29T07:24:12.953Z,1.96
2022-11-29T07:25:13.282Z,4.92
2022-11-29T07:26:13.408Z,2.00
2022-11-29T07:27:13.809Z,2.00
2022-11-29T07:32:13.111Z,1.44
2022-11-29T07:33:13.475Z,1.60
2022-11-29T07:34:13.503Z,0.84
2022-11-29T07:35:13.437Z,0.24
2022-11-29T07:36:13.389Z,2.52
2022-11-29T07:37:13.261Z,1.68
2022-11-29T07:38:13.164Z,0.00
2022-11-29T07:39:13.363Z,1.64
2022-11-29T07:40:13.311Z,0.00
2022-11-29T07:41:13.399Z,0.00
2022-11-29T07:42:13.644Z,0.56
2022-11-29T07:43:13.622Z,2.44
2022-11-29T07:44:13.449Z,3.68
2022-11-29T07:45:13.416Z,2.72
2022-11-29T07:46:13.742Z,2.24
2022-11-29T07:47:14.002Z,2.56
2022-11-29T07:48:13.137Z,2.16
2022-11-29T07:49:13.140Z,0.72
2022-11-29T07:50:13.120Z,3.28
2022-11-29T07:51:13.064Z,3.80
2022-11-29T07:52:13.075Z,3.08
2022-11-29T07:53:12.994Z,2.88
2022-11-29T07:54:12.942Z,0.64
2022-11-29T07:55:18.328Z,1.56
2022-11-29T07:56:14.250Z,4.56
2022-11-29T07:57:13.258Z,2.72
2022-11-29T07:58:13.310Z,3.24
2022-11-29T07:59:13.457Z,5.76
2022-11-29T08:00:13.476Z,2.08
2022-11-29T08:01:13.474Z,0.40
2022-11-29T08:02:13.695Z,2.60
2022-11-29T08:03:13.928Z,1.80
2022-11-29T08:04:12.983Z,0.00
2022-11-29T08:05:13.186Z,0.00
2022-11-29T08:06:13.115Z,0.16
2022-11-29T08:07:13.067Z,0.24
2022-11-29T08:08:13.028Z,0.96
2022-11-29T08:09:12.891Z,1.44
2022-11-29T08:10:13.040Z,0.96
2022-11-29T08:11:12.992Z,1.92
2022-11-29T08:12:12.961Z,2.64
2022-11-29T08:13:13.210Z,2.64
2022-11-29T08:14:13.162Z,2.56
2022-11-29T08:15:13.322Z,2.20
2022-11-29T08:16:13.498Z,3.28
2022-11-29T08:17:13.766Z,1.64
2022-11-29T08:18:13.689Z,3.44
2022-11-29T08:19:18.723Z,1.68
2022-11-29T08:20:13.893Z,2.40
2022-11-29T08:21:12.802Z,1.92
2022-11-29T08:22:18.759Z,1.36
2022-11-29T08:23:13.736Z,0.48
2022-11-29T08:24:13.658Z,0.56
2022-11-29T08:25:13.866Z,0.60
2022-11-29T08:26:13.715Z,1.08
2022-11-29T08:27:13.953Z,0.12
2022-11-29T08:28:12.970Z,2.76
2022-11-29T08:29:12.938Z,2.16
2022-11-29T08:30:12.871Z,0.00
2022-11-29T08:31:12.741Z,0.00
2022-11-29T08:32:14.152Z,0.32
2022-11-29T08:33:13.198Z,0.00
2022-11-29T08:34:13.377Z,0.00
2022-11-29T08:35:13.311Z,0.00
2022-11-29T08:36:13.551Z,0.64
2022-11-29T08:37:13.432Z,0.00
2022-11-29T08:38:13.787Z,0.00
2022-11-29T08:39:14.033Z,0.00
2022-11-29T08:40:12.960Z,0.00
2022-11-29T08:41:12.963Z,1.20
2022-11-29T08:42:13.047Z,0.56
2022-11-29T08:43:12.986Z,0.00
2022-11-29T08:44:13.046Z,0.64
2022-11-29T08:45:13.224Z,0.00
2022-11-29T08:46:18.565Z,0.00
2022-11-29T08:47:13.138Z,0.00
2022-11-29T08:48:13.199Z,0.00
2022-11-29T08:49:13.130Z,0.00
2022-11-29T08:50:13.105Z,0.00
2022-11-29T08:51:12.983Z,0.16
2022-11-29T08:52:12.889Z,0.00
2022-11-29T08:53:12.888Z,0.00
2022-11-29T08:54:13.231Z,0.00
2022-11-29T08:55:13.266Z,0.00
2022-11-29T08:57:41.047Z,0.12
2022-11-29T08:58:13.671Z,0.12
2022-11-29T08:59:13.799Z,0.00
2022-11-29T09:00:14.034Z,0.00
2022-11-29T09:01:13.308Z,0.88
2022-11-29T09:04:13.658Z,0.04
2022-11-29T09:05:23.895Z,0.00
2022-11-29T09:06:13.315Z,0.12
2022-11-29T09:07:13.848Z,0.16
2022-11-29T09:08:14.160Z,0.64
2022-11-29T09:09:13.121Z,0.00
2022-11-29T09:10:13.009Z,0.00
2022-11-29T09:11:13.512Z,0.00
2022-11-29T09:12:13.601Z,0.00
2022-11-29T09:13:13.840Z,0.00
2022-11-29T09:14:13.705Z,0.00
2022-11-29T09:15:13.922Z,1.04
2022-11-29T09:16:12.987Z,3.00
2022-11-29T09:17:12.982Z,5.32
2022-11-29T09:18:13.076Z,4.92
2022-11-29T09:19:13.060Z,0.92
2022-11-29T09:20:13.073Z,2.12
2022-11-29T09:21:13.184Z,2.44
2022-11-29T09:22:13.289Z,2.04
2022-11-29T09:23:13.394Z,0.00
2022-11-29T09:24:13.409Z,0.00
2022-11-29T09:25:13.509Z,1.16
2022-11-29T09:26:13.476Z,0.00
2022-11-29T09:27:13.379Z,1.68
2022-11-29T09:28:13.214Z,0.56
2022-11-29T09:29:13.070Z,0.00
2022-11-29T09:30:13.242Z,0.08
2022-11-29T09:31:13.701Z,0.60
2022-11-29T09:32:13.787Z,0.08
2022-11-29T09:33:13.700Z,1.00
2022-11-29T09:34:14.002Z,0.64
2022-11-29T09:35:12.952Z,0.24
2022-11-29T09:36:13.319Z,3.44
2022-11-29T09:37:14.739Z,0.00
2022-11-29T09:38:13.873Z,0.24
2022-11-29T09:39:13.939Z,2.16
2022-11-29T09:40:12.845Z,0.08
2022-11-29T09:41:14.179Z,0.68
2022-11-29T09:42:13.077Z,4.08
2022-11-29T09:43:12.966Z,2.08
2022-11-29T09:44:18.011Z,2.12
2022-11-29T09:45:13.112Z,1.40
2022-11-29T09:46:13.216Z,0.12
2022-11-29T09:47:13.275Z,2.08
2022-11-29T09:48:13.276Z,2.08
2022-11-29T09:49:13.492Z,1.04
2022-11-29T09:50:13.701Z,2.88
2022-11-29T09:51:13.632Z,4.72
2022-11-29T09:52:13.760Z,2.84
2022-11-29T09:53:14.003Z,1.24
2022-11-29T09:54:13.413Z,1.24
2022-11-29T09:55:13.451Z,5.56
2022-11-29T09:56:13.383Z,5.44
2022-11-29T09:57:13.338Z,1.12
2022-11-29T09:58:13.242Z,4.20
2022-11-29T09:59:38.374Z,5.68
2022-11-29T10:00:14.691Z,3.84
2022-11-29T10:01:13.827Z,2.76
2022-11-29T10:02:18.317Z,1.20
2022-11-29T10:03:13.685Z,0.64
2022-11-29T10:04:13.988Z,2.04
2022-11-29T10:05:13.182Z,2.32
2022-11-29T10:06:23.402Z,0.48
2022-11-29T10:07:13.355Z,1.80
2022-11-29T10:08:13.531Z,0.92
2022-11-29T10:09:13.589Z,0.84
2022-11-29T10:10:23.651Z,4.26
2022-11-29T10:11:13.870Z,1.80
2022-11-29T10:12:14.191Z,2.68
2022-11-29T10:13:13.134Z,1.20
2022-11-29T10:14:18.195Z,0.40
2022-11-29T10:15:13.352Z,0.00
2022-11-29T10:16:13.587Z,0.00
2022-11-29T10:17:13.731Z,3.24
2022-11-29T10:18:13.657Z,4.68
2022-11-29T10:19:13.692Z,0.56
2022-11-29T10:20:13.772Z,0.12
2022-11-29T10:21:13.838Z,0.00
2022-11-29T10:22:13.892Z,0.00
2022-11-29T10:23:41.951Z,0.00
2022-11-29T10:24:13.637Z,0.48
2022-11-29T10:25:13.827Z,0.72
2022-11-29T10:26:13.958Z,3.24
2022-11-29T10:27:13.501Z,1.92
2022-11-29T10:28:13.867Z,0.60
2022-11-29T10:29:19.427Z,2.44
2022-11-29T10:30:13.645Z,1.48
2022-11-29T10:31:13.690Z,1.96
2022-11-29T10:32:14.185Z,3.28
2022-11-29T10:33:13.699Z,2.92
2022-11-29T10:34:13.771Z,0.84
2022-11-29T10:35:13.718Z,2.00
2022-11-29T10:36:13.594Z,1.04
2022-11-29T10:37:13.757Z,4.60
2022-11-29T10:38:31.637Z,5.84
2022-11-29T10:39:14.565Z,5.76
2022-11-29T10:40:19.426Z,3.00
2022-11-29T10:41:13.631Z,1.24
2022-11-29T10:42:13.764Z,0.92
2022-11-29T10:43:14.271Z,1.44
2022-11-29T10:44:13.418Z,2.72
2022-11-29T10:45:13.307Z,1.12
2022-11-29T10:46:13.535Z,5.76
2022-11-29T10:47:14.540Z,5.80
2022-11-29T10:48:13.864Z,3.56
2022-11-29T10:49:14.079Z,2.72
2022-11-29T10:50:12.919Z,1.04
2022-11-29T10:51:12.824Z,3.08
2022-11-29T10:52:13.874Z,1.60
2022-11-29T10:53:14.234Z,0.44
2022-11-29T10:54:13.336Z,3.56
2022-11-29T10:55:13.368Z,6.16
2022-11-29T10:56:13.358Z,5.04
2022-11-29T10:57:13.700Z,3.92
2022-11-29T10:58:13.674Z,2.48
2022-11-29T10:59:13.878Z,4.16
2022-11-29T11:00:13.704Z,7.64
2022-11-29T11:01:14.058Z,4.24
2022-11-29T11:02:13.509Z,4.96
2022-11-29T11:03:13.492Z,4.16
2022-11-29T11:04:13.539Z,3.28
2022-11-29T11:05:13.655Z,5.00
2022-11-29T11:06:13.662Z,5.00
2022-11-29T11:07:13.603Z,9.40
2022-11-29T11:08:13.590Z,8.36
2022-11-29T11:09:13.818Z,8.92
2022-11-29T11:10:13.683Z,2.72
2022-11-29T11:11:13.966Z,3.92
2022-11-29T11:12:13.265Z,9.76
2022-11-29T11:13:13.724Z,4.52
2022-11-29T11:14:13.718Z,6.92
2022-11-29T11:15:13.619Z,4.12
2022-11-29T11:16:13.766Z,4.24
2022-11-29T11:17:13.726Z,3.28
2022-11-29T11:18:13.950Z,2.88
2022-11-29T11:19:12.942Z,6.20
2022-11-29T11:20:12.905Z,5.04
2022-11-29T11:21:12.848Z,3.80
2022-11-29T11:22:13.798Z,3.52
2022-11-29T11:23:14.115Z,3.00
2022-11-29T11:24:13.281Z,4.36
2022-11-29T11:25:13.377Z,3.92
2022-11-29T11:26:13.684Z,5.48
2022-11-29T11:27:13.660Z,6.32
2022-11-29T11:28:13.622Z,7.72
2022-11-29T11:29:13.657Z,8.20
2022-11-29T11:30:13.712Z,7.88
2022-11-29T11:31:13.928Z,4.96
2022-11-29T11:32:18.864Z,4.48
2022-11-29T11:33:14.163Z,5.52
2022-11-29T11:34:13.226Z,7.04
2022-11-29T11:35:18.214Z,7.60
2022-11-29T11:36:13.451Z,8.48
2022-11-29T11:37:13.757Z,3.40
2022-11-29T11:38:13.835Z,4.44
2022-11-29T11:39:13.741Z,8.08
2022-11-29T11:40:13.940Z,1.56
2022-11-29T11:41:13.069Z,3.20
2022-11-29T11:42:12.993Z,6.24
2022-11-29T11:43:12.994Z,7.24
2022-11-29T11:44:15.387Z,6.88
2022-11-29T11:45:13.163Z,5.88
2022-11-29T11:46:17.710Z,4.00
2022-11-29T11:47:14.741Z,2.60
2022-11-29T11:48:13.765Z,3.44
2022-11-29T11:49:13.656Z,5.08
2022-11-29T11:50:13.742Z,7.92
2022-11-29T11:51:14.114Z,5.76
2022-11-29T11:52:13.026Z,6.56
2022-11-29T11:53:12.934Z,1.64
2022-11-29T11:54:13.237Z,4.28
2022-11-29T11:55:13.215Z,4.40
2022-11-29T11:56:13.262Z,4.16
2022-11-29T11:57:13.461Z,4.32
2022-11-29T11:58:13.526Z,3.64
2022-11-29T11:59:18.982Z,1.68
2022-11-29T12:00:13.512Z,1.76
2022-11-29T12:01:13.713Z,7.27
2022-11-29T12:02:18.897Z,5.56
2022-11-29T12:03:13.056Z,3.16
2022-11-29T12:04:13.493Z,0.12
2022-11-29T12:05:13.827Z,1.80
2022-11-29T12:06:13.802Z,8.60
2022-11-29T12:07:13.866Z,7.28
2022-11-29T12:08:19.032Z,5.84
2022-11-29T12:09:13.606Z,5.52
2022-11-29T12:10:13.524Z,5.72
2022-11-29T12:11:13.908Z,4.76
2022-11-29T12:12:12.927Z,3.96
2022-11-29T12:13:13.080Z,5.24
2022-11-29T12:14:12.998Z,2.56
2022-11-29T12:15:13.172Z,4.64
2022-11-29T12:16:13.108Z,5.48
2022-11-29T12:17:18.481Z,5.64
2022-11-29T12:18:12.875Z,5.96
2022-11-29T12:19:13.839Z,7.40
2022-11-29T12:20:14.027Z,8.04
2022-11-29T12:21:12.877Z,7.40
2022-11-29T12:22:13.877Z,4.52
2022-11-29T12:23:13.770Z,2.36
2022-11-29T12:24:14.126Z,2.68
2022-11-29T12:25:12.992Z,3.44
2022-11-29T12:26:19.192Z,3.20
2022-11-29T12:27:13.838Z,5.08
2022-11-29T12:28:17.160Z,6.00
2022-11-29T12:29:13.181Z,4.80
2022-11-29T12:30:13.280Z,4.16
2022-11-29T12:31:13.571Z,6.80
2022-11-29T12:32:13.674Z,4.64
2022-11-29T12:33:13.872Z,4.32
2022-11-29T12:34:14.210Z,6.00
2022-11-29T12:35:17.476Z,7.84
2022-11-29T12:36:12.905Z,6.16
2022-11-29T12:37:12.870Z,4.32
2022-11-29T12:38:13.745Z,6.80
2022-11-29T12:39:13.757Z,7.36
2022-11-29T12:40:13.737Z,7.76
2022-11-29T12:41:13.789Z,6.32
2022-11-29T12:42:13.716Z,3.00
2022-11-29T12:43:13.990Z,2.48
2022-11-29T12:44:13.381Z,2.68
2022-11-29T12:45:13.442Z,3.40
2022-11-29T12:46:13.476Z,1.40
2022-11-29T12:47:35.067Z,3.84
2022-11-29T12:48:13.268Z,2.96
2022-11-29T12:49:13.473Z,0.64
2022-11-29T12:50:16.062Z,4.72
2022-11-29T12:51:31.802Z,2.56
2022-11-29T12:52:14.256Z,5.52
2022-11-29T12:53:13.360Z,4.92
2022-11-29T12:54:13.901Z,5.28
2022-11-29T12:55:12.992Z,6.00
2022-11-29T12:56:13.117Z,3.88
2022-11-29T12:57:13.348Z,6.64
2022-11-29T12:58:13.370Z,1.28
2022-11-29T12:59:13.345Z,4.72
2022-11-29T13:00:13.331Z,4.16
2022-11-29T13:01:18.504Z,5.00
2022-11-29T13:02:13.848Z,1.75
2022-11-29T13:03:14.014Z,2.76
2022-11-29T13:04:13.368Z,5.00
2022-11-29T13:05:13.471Z,3.76
2022-11-29T13:06:13.714Z,3.72
2022-11-29T13:07:13.747Z,4.36
2022-11-29T13:08:14.058Z,2.56
2022-11-29T13:09:13.173Z,3.44
2022-11-29T13:10:17.920Z,4.52
2022-11-29T13:11:13.536Z,5.60
2022-11-29T13:12:13.548Z,6.24
2022-11-29T13:13:13.609Z,2.48
2022-11-29T13:14:42.100Z,3.52
2022-11-29T13:15:13.525Z,6.28
2022-11-29T13:16:19.010Z,5.60
2022-11-29T13:17:57.429Z,2.64
2022-11-29T13:18:13.481Z,3.52
2022-11-29T13:19:13.445Z,5.56
2022-11-29T13:20:13.714Z,7.56
2022-11-29T13:21:14.092Z,6.40
2022-11-29T13:22:18.211Z,7.80
2022-11-29T13:23:13.683Z,5.92
2022-11-29T13:24:38.378Z,5.23
2022-11-29T13:25:13.629Z,8.88